»·PEaware :: N7375Q KDLS-KEUL

N7375Q :: KDLS-KEUL

FLIGHT INFORMATION

Flight Status: Arrived
Operator: Privately registered:
United States
More flights under this callsign
Pilot: Ion I. (24133)
Aircraft: SOCATA TBM-900
(TBM9)
More flights by this aircraft type
Origin: KDLS Columbia Gorge Regl/The Dalle
United States
Destination: KEUL Caldwell Industrial
United States
More flights between these airports :: More routes between these airports
Route: DALLS1 LTJ V182 BKE V4 BOI
File this flight plan on PilotEdge
Remarks:
Altitude:
(Current/Filed)
29,000ft
Speed:
(Current/Filed)
310kts
Departed: 14-Aug-20 10:06 AM
Arrived: 14-Aug-20 11:14 AM
Distance/Time
Traveled:
227nm/1:07
Distance/Time
To Go:
Arrived

Flight Plot

Page will automatically refresh every two minutes.

Flight plan parsing failed; only flown route is shown


Map Options




Map Legend


Flown Route
Filed Route
Departure Airport
Arrival Airport
Navaid (VOR, NDB)
Fix

Horizontal Profiles

Position Reports

Time Latitude Longitude Heading Altitude Ground
Speed
14-Aug-20 09:52 45.618213 -121.171555 322 220ft 0kts
14-Aug-20 09:53 45.618213 -121.171555 322 220ft 0kts
14-Aug-20 09:54 45.618213 -121.171555 322 220ft 0kts
14-Aug-20 09:55 45.618213 -121.171555 322 220ft 0kts
14-Aug-20 09:56 45.618213 -121.171555 322 220ft 0kts
14-Aug-20 09:57 45.618213 -121.171555 322 220ft 0kts
14-Aug-20 09:58 45.618213 -121.171555 322 220ft 0kts
14-Aug-20 09:59 45.618231 -121.171575 322 220ft 1kts
14-Aug-20 10:00 45.618075 -121.170643 144 222ft 6kts
14-Aug-20 10:01 45.616210 -121.167449 143 231ft 13kts
14-Aug-20 10:02 45.612547 -121.163733 145 238ft 16kts
14-Aug-20 10:03 45.612181 -121.163143 103 239ft 0kts
14-Aug-20 10:04 45.612131 -121.162835 103 239ft 5kts
14-Aug-20 10:05 45.614811 -121.164625 325 237ft 82kts
14-Aug-20 10:07 45.620464 -121.190705 173 1808ft 116kts
14-Aug-20 10:08 45.596709 -121.158706 134 3867ft 124kts
14-Aug-20 10:09 45.569469 -121.129158 144 6221ft 134kts
14-Aug-20 10:10 45.549492 -121.085036 63 8311ft 151kts
14-Aug-20 10:11 45.586383 -121.091268 329 10471ft 167kts
14-Aug-20 10:12 45.633580 -121.100134 355 12523ft 177kts
14-Aug-20 10:13 45.683495 -121.100608 355 14527ft 183kts
14-Aug-20 10:14 45.730018 -121.080694 72 16484ft 219kts
14-Aug-20 10:15 45.694504 -121.012734 126 18511ft 227kts
14-Aug-20 10:16 45.670742 -120.927897 108 20531ft 235kts
14-Aug-20 10:17 45.648427 -120.838321 108 22545ft 243kts
14-Aug-20 10:18 45.625488 -120.746598 108 24533ft 248kts
14-Aug-20 10:19 45.602015 -120.653115 108 26525ft 253kts
14-Aug-20 10:20 45.577995 -120.557881 108 28537ft 261kts
14-Aug-20 10:21 45.551526 -120.453347 108 29238ft 308kts
14-Aug-20 10:22 45.520436 -120.331114 109 29210ft 339kts
14-Aug-20 10:22 45.493176 -120.224540 109 29203ft 348kts
14-Aug-20 10:24 45.453882 -120.071773 109 29218ft 353kts
14-Aug-20 10:25 45.419817 -119.940168 109 29229ft 354kts
14-Aug-20 10:26 45.385467 -119.808172 109 29230ft 355kts
14-Aug-20 10:26 45.356844 -119.698777 109 29230ft 355kts
14-Aug-20 10:27 45.322215 -119.567119 109 29231ft 355kts
14-Aug-20 10:28 45.287520 -119.435996 109 29233ft 354kts
14-Aug-20 10:30 45.246834 -119.283154 110 29228ft 353kts
14-Aug-20 10:30 45.217716 -119.174352 110 29228ft 353kts
14-Aug-20 10:31 45.182799 -119.044513 110 29229ft 353kts
14-Aug-20 10:32 45.147676 -118.914637 110 29258ft 352kts
14-Aug-20 10:33 45.112447 -118.785025 110 29293ft 352kts
14-Aug-20 10:34 45.077105 -118.655711 110 29292ft 352kts
14-Aug-20 10:35 45.041520 -118.526209 110 29288ft 353kts
14-Aug-20 10:36 45.005829 -118.397008 110 29285ft 353kts
14-Aug-20 10:37 44.969936 -118.267822 110 29276ft 353kts
14-Aug-20 10:38 44.933955 -118.138983 110 29275ft 352kts
14-Aug-20 10:39 44.897878 -118.010488 110 29278ft 352kts
14-Aug-20 10:40 44.861380 -117.881144 110 27354ft 352kts
14-Aug-20 10:41 44.812339 -117.765911 143 25288ft 343kts
14-Aug-20 10:42 44.741111 -117.679334 139 23307ft 337kts
14-Aug-20 10:43 44.671888 -117.590400 139 21319ft 340kts
14-Aug-20 10:44 44.602039 -117.500913 139 19326ft 339kts
14-Aug-20 10:45 44.532784 -117.412520 139 17341ft 336kts
14-Aug-20 10:46 44.467383 -117.329260 140 17032ft 300kts
14-Aug-20 10:47 44.407029 -117.252701 140 17018ft 288kts
14-Aug-20 10:48 44.347278 -117.177112 140 17006ft 291kts
14-Aug-20 10:49 44.287020 -117.101093 140 16995ft 292kts
14-Aug-20 10:50 44.226410 -117.024865 140 16996ft 293kts
14-Aug-20 10:51 44.165722 -116.948750 140 16996ft 294kts
14-Aug-20 10:52 44.104879 -116.872672 140 16997ft 295kts
14-Aug-20 10:53 44.043806 -116.796512 140 16999ft 295kts
14-Aug-20 10:54 43.982505 -116.720293 140 17004ft 295kts
14-Aug-20 10:55 43.921370 -116.644485 140 17007ft 295kts
14-Aug-20 10:56 43.859938 -116.568545 140 17005ft 295kts
14-Aug-20 10:57 43.812485 -116.474161 112 15986ft 322kts
14-Aug-20 10:58 43.777243 -116.358678 112 14019ft 326kts
14-Aug-20 10:59 43.742050 -116.243861 113 11993ft 319kts
14-Aug-20 11:00 43.707992 -116.132856 113 9983ft 308kts
14-Aug-20 11:01 43.655516 -116.066834 198 8820ft 262kts
14-Aug-20 11:02 43.611608 -116.144137 221 8015ft 243kts
14-Aug-20 11:03 43.554011 -116.195150 233 7881ft 251kts
14-Aug-20 11:04 43.535012 -116.287194 255 6029ft 247kts
14-Aug-20 11:05 43.518621 -116.374293 256 4978ft 206kts
14-Aug-20 11:06 43.506526 -116.440269 265 5045ft 165kts
14-Aug-20 11:07 43.535151 -116.489871 314 5018ft 168kts
14-Aug-20 11:08 43.560641 -116.524622 315 4497ft 100kts
14-Aug-20 11:09 43.579739 -116.550724 315 4004ft 96kts
14-Aug-20 11:10 43.598176 -116.576210 317 3538ft 89kts
14-Aug-20 11:11 43.615923 -116.600257 318 3007ft 86kts
14-Aug-20 11:12 43.632609 -116.623120 315 2561ft 86kts
14-Aug-20 11:13 43.642007 -116.636335 263 2416ft 7kts
14-Aug-20 11:14 43.642511 -116.638813 316 2414ft 12kts
14-Aug-20 11:15 43.642451 -116.640195 141 2414ft 2kts
14-Aug-20 11:16 43.642415 -116.640153 137 2414ft 0kts
14-Aug-20 11:17 43.642415 -116.640153 137 2414ft 0kts
14-Aug-20 11:18 43.642415 -116.640153 137 2414ft 0kts
14-Aug-20 11:19 43.642415 -116.640153 137 2414ft 0kts
14-Aug-20 11:20 43.642415 -116.640153 137 2414ft 0kts
14-Aug-20 11:21 43.642415 -116.640153 137 2414ft 0kts

Navigation Log

Ident Type
Flight plan parsing failed, navigation log unavailable